• Join FlightAware (Why Join?)
  • Login
  • US Flag 
02:17AM EDT


 

Airport Tracker/Info


-or-


 

Live Flight TrackerFlight Track Log ✈ SKQ221 ✈ 08-May-2013 ✈ KPIT - KOSU

Flight Track Log - Related Links

Times and Time Zones

All times are in EDT time to prevent confusion due to time zone crossing. See the SKQ221 flight status page for this flight to view local times or setup timezone preferences in your user account.

Time Position Orientation Groundspeed Altitude Reporting Facility
EDT Latitude Longitude Course Direction KTS MPH feet Rate Location/Type
12:48AM 40.4839 -80.3100 263° West 124 143 3,100  Level Cleveland Center
12:49AM 40.4817 -80.3511 266° West 124 143 4,100 960 Climbing Cleveland Center
12:50AM 40.4756 -80.3947 260° West 124 143 5,100 900 Climbing Cleveland Center
12:51AM 40.4694 -80.4411 260° West 124 143 6,000 420 Climbing Cleveland Center
12:52AM 40.4611 -80.5011 260° West 141 162 6,000  Level Cleveland Center
12:53AM 40.4528 -80.5639 260° West 162 186 6,000 -60 Level Cleveland Center
12:54AM 40.4467 -80.6294 263° West 175 201 5,900  Descending Cleveland Center
12:55AM 40.4381 -80.6894 259° West 181 208 6,000  Climbing Cleveland Center
12:56AM 40.4278 -80.7550 258° West 181 208 5,900 -60 Descending Cleveland Center
12:57AM 40.4192 -80.8178 260° West 181 208 5,900  Level Cleveland Center
12:58AM 40.4108 -80.8803 260° West 181 208 5,900  Level Cleveland Center
12:59AM 40.4022 -80.9458 260° West 181 208 5,900  Level Cleveland Center
01:00AM 40.3936 -81.0083 260° West 181 208 6,000  Climbing Cleveland Center
01:01AM 40.3831 -81.0736 261° West 181 208 6,000  Level Cleveland Center
01:02AM 40.3744 -81.1364 260° West 181 208 6,000  Level Cleveland Center
01:03AM 40.3656 -81.1989 259° West 181 208 6,000 -60 Level Cleveland Center
01:04AM 40.3569 -81.2614 260° West 181 208 5,900 -60 Descending Cleveland Center
01:05AM 40.3483 -81.3242 260° West 181 208 5,900  Level Cleveland Center
01:07AM 40.3283 -81.4408 257° West 176 203 5,900  Level Indianapolis Center
01:08AM 40.3197 -81.5089 261° West 184 212 6,000  Climbing Indianapolis Center
01:09AM 40.3100 -81.5728 259° West 178 205 5,900  Descending Indianapolis Center
01:10AM 40.3011 -81.6397 260° West 183 211 6,000  Climbing Indianapolis Center
01:11AM 40.2908 -81.7058 259° West 184 212 5,900  Descending Indianapolis Center
01:12AM 40.2817 -81.7731 260° West 186 214 6,000  Climbing Indianapolis Center
01:13AM 40.2717 -81.8397 259° West 185 213 5,900  Descending Indianapolis Center
01:14AM 40.2606 -81.9044 257° West 182 209 6,000  Climbing Indianapolis Center
01:15AM 40.2514 -81.9747 260° West 189 217 6,000  Level Indianapolis Center
01:16AM 40.2414 -82.0503 260° West 188 216 6,000  Level Indianapolis Center
01:17AM 40.2314 -82.1122 258° West 184 212 6,000 -60 Level Indianapolis Center
01:18AM 40.2214 -82.1803 259° West 186 214 5,900 -300 Descending Indianapolis Center
01:19AM 40.2106 -82.2522 259° West 198 228 5,400 -480 Descending Indianapolis Center
01:20AM 40.1994 -82.3286 259° West 210 242 5,000 -480 Descending Indianapolis Center
01:21AM 40.1886 -82.4008 259° West 202 232 4,500 -540 Descending Indianapolis Center
01:22AM 40.1778 -82.4719 259° West 203 234 4,000 -540 Descending Indianapolis Center
01:23AM 40.1669 -82.5417 259° West 194 223 3,500 -480 Descending Indianapolis Center
01:24AM 40.1561 -82.6142 259° West 191 220 3,100 -300 Descending Indianapolis Center
01:25AM 40.1483 -82.6667 259° West 187 215 3,000 -120 Descending Indianapolis Center
01:27AM 40.1306 -82.7340 258° West  Level FlightAware Approximate
01:34AM 40.0667 -83.0667 237° Southwest  Level FlightAware Approximate
01:35AM 40.0798 -83.0732 237° Southwest  Level Estimated
01:36AM 40.0798 -83.0732 237° Southwest  Level Estimated